createdAt,value
2023-02-15T00:00:17.256Z,9.20
2023-02-15T00:02:45.710Z,9.38
2023-02-15T00:05:14.027Z,10.00
2023-02-15T00:07:42.093Z,10.38
2023-02-15T00:10:13.030Z,10.05
2023-02-15T00:12:42.626Z,9.40
2023-02-15T00:15:12.434Z,9.85
2023-02-15T00:17:40.607Z,10.30
2023-02-15T00:20:09.720Z,11.02
2023-02-15T00:22:37.997Z,11.43
2023-02-15T00:25:06.794Z,9.70
2023-02-15T00:27:37.841Z,10.32
2023-02-15T00:30:09.375Z,10.05
2023-02-15T00:32:37.897Z,10.10
2023-02-15T00:35:07.808Z,9.60
2023-02-15T00:37:35.899Z,10.15
2023-02-15T00:40:05.700Z,10.68
2023-02-15T00:42:33.900Z,11.15
2023-02-15T00:45:01.987Z,10.27
2023-02-15T00:47:31.722Z,9.82
2023-02-15T00:49:59.708Z,9.35
2023-02-15T00:52:27.694Z,10.68
2023-02-15T00:54:57.743Z,8.75
2023-02-15T00:57:25.911Z,9.43
2023-02-15T00:59:53.981Z,9.45
2023-02-15T01:02:22.300Z,9.13
2023-02-15T01:04:51.839Z,9.55
2023-02-15T01:07:19.934Z,9.65
2023-02-15T01:09:50.209Z,9.38
2023-02-15T01:12:18.145Z,10.40
2023-02-15T01:14:51.291Z,10.45
2023-02-15T01:17:21.220Z,9.88
2023-02-15T01:19:49.129Z,10.40
2023-02-15T01:22:18.545Z,9.68
2023-02-15T01:24:47.001Z,9.27
2023-02-15T01:27:15.225Z,8.77
2023-02-15T01:29:43.600Z,9.80
2023-02-15T01:32:12.376Z,9.88
2023-02-15T01:34:40.469Z,9.63
2023-02-15T01:37:08.458Z,9.80
2023-02-15T01:39:38.165Z,9.35
2023-02-15T01:42:06.208Z,10.63
2023-02-15T01:44:50.828Z,9.70
2023-02-15T01:47:28.399Z,10.20
2023-02-15T01:50:03.266Z,11.48
2023-02-15T01:52:32.096Z,10.77
2023-02-15T01:55:01.509Z,10.38
2023-02-15T01:57:31.525Z,10.93
2023-02-15T02:00:02.776Z,10.75
2023-02-15T02:02:41.489Z,11.63
2023-02-15T02:05:10.603Z,11.00
2023-02-15T02:07:41.751Z,10.00
2023-02-15T02:10:15.454Z,10.18
2023-02-15T02:12:46.256Z,9.55
2023-02-15T02:15:15.325Z,9.57
2023-02-15T02:17:56.591Z,9.32
2023-02-15T02:20:48.119Z,9.25
2023-02-15T02:23:34.619Z,8.60
2023-02-15T02:26:34.670Z,10.45
2023-02-15T02:29:40.543Z,8.95
2023-02-15T02:32:30.589Z,7.75
2023-02-15T02:35:04.599Z,8.60
2023-02-15T02:37:39.355Z,8.32
2023-02-15T02:40:15.296Z,7.45
2023-02-15T02:42:46.263Z,8.38
2023-02-15T02:45:22.106Z,8.10
2023-02-15T02:47:55.114Z,7.78
2023-02-15T02:50:29.104Z,7.75
2023-02-15T02:52:58.986Z,8.10
2023-02-15T02:55:31.411Z,8.20
2023-02-15T02:58:05.188Z,7.87
2023-02-15T03:00:38.204Z,7.10
2023-02-15T03:03:11.980Z,7.00
2023-02-15T03:05:46.008Z,7.37
2023-02-15T03:08:22.954Z,6.75
2023-02-15T03:10:55.579Z,6.57
2023-02-15T03:13:24.886Z,7.45
2023-02-15T03:16:12.415Z,7.37
2023-02-15T03:18:45.403Z,6.70
2023-02-15T03:21:23.208Z,6.00
2023-02-15T03:23:56.729Z,6.20
2023-02-15T03:26:31.953Z,6.85
2023-02-15T03:29:02.457Z,6.10
2023-02-15T03:31:35.370Z,6.30
2023-02-15T03:34:08.391Z,6.78
2023-02-15T03:36:45.716Z,6.25
2023-02-15T03:39:20.957Z,5.93
2023-02-15T03:41:56.805Z,5.62
2023-02-15T03:44:30.279Z,6.15
2023-02-15T03:47:06.408Z,5.47
2023-02-15T03:49:42.559Z,5.70
2023-02-15T03:52:13.584Z,5.45
2023-02-15T03:54:47.042Z,6.15
2023-02-15T03:57:37.177Z,5.62
2023-02-15T04:00:31.433Z,4.93
2023-02-15T04:03:23.712Z,6.07
2023-02-15T04:05:51.986Z,6.32
2023-02-15T04:08:21.565Z,5.72
2023-02-15T04:10:54.654Z,7.32
2023-02-15T04:13:24.219Z,6.62
2023-02-15T04:16:08.091Z,7.82
2023-02-15T04:18:57.992Z,7.53
2023-02-15T04:21:45.591Z,8.00
2023-02-15T04:24:33.868Z,7.05
2023-02-15T04:27:03.286Z,5.97
2023-02-15T04:29:32.379Z,6.87
2023-02-15T04:32:03.456Z,5.68
2023-02-15T04:34:31.920Z,6.05
2023-02-15T04:36:59.930Z,5.05
2023-02-15T04:39:29.397Z,5.43
2023-02-15T04:41:57.651Z,5.35
2023-02-15T04:44:25.826Z,6.18
2023-02-15T04:46:53.797Z,5.07
2023-02-15T04:49:22.165Z,5.53
2023-02-15T04:51:50.152Z,6.07
2023-02-15T04:54:21.371Z,5.15
2023-02-15T04:56:51.113Z,5.10
2023-02-15T04:59:19.174Z,4.93
2023-02-15T05:01:47.173Z,5.32
2023-02-15T05:04:15.648Z,4.95
2023-02-15T05:06:43.724Z,5.30
2023-02-15T05:09:14.459Z,4.55
2023-02-15T05:11:42.729Z,5.32
2023-02-15T05:14:12.006Z,3.75
2023-02-15T05:16:40.084Z,4.65
2023-02-15T05:19:10.028Z,4.80
2023-02-15T05:21:37.997Z,4.00
2023-02-15T05:24:26.418Z,4.43
2023-02-15T05:27:12.228Z,3.87
2023-02-15T05:29:42.073Z,3.92
2023-02-15T05:32:11.592Z,3.80
2023-02-15T05:34:39.664Z,3.75
2023-02-15T05:37:08.539Z,4.97
2023-02-15T05:39:36.829Z,3.55
2023-02-15T05:42:05.727Z,3.97
2023-02-15T05:44:33.709Z,4.03
2023-02-15T05:47:04.000Z,3.92
2023-02-15T05:49:32.305Z,5.07
2023-02-15T05:52:00.270Z,3.92
2023-02-15T05:54:28.657Z,3.60
2023-02-15T05:56:56.862Z,4.43
2023-02-15T05:59:24.949Z,4.12
2023-02-15T06:01:53.212Z,4.35
2023-02-15T06:04:22.788Z,4.30
2023-02-15T06:06:50.798Z,4.47
2023-02-15T06:09:20.762Z,4.18
2023-02-15T06:11:48.996Z,3.80
2023-02-15T06:14:17.265Z,4.15
2023-02-15T06:16:45.340Z,3.37
2023-02-15T06:19:13.743Z,4.12
2023-02-15T06:21:43.268Z,3.50
2023-02-15T06:24:11.608Z,4.20
2023-02-15T06:26:39.890Z,3.72
2023-02-15T06:29:07.933Z,3.42
2023-02-15T06:31:36.814Z,3.05
2023-02-15T06:34:08.319Z,3.58
2023-02-15T06:36:36.416Z,3.67
2023-02-15T06:39:06.390Z,3.28
2023-02-15T06:41:34.605Z,3.35
2023-02-15T06:44:02.712Z,4.37
2023-02-15T06:46:30.718Z,3.12
2023-02-15T06:48:59.079Z,4.05
2023-02-15T06:51:27.015Z,4.22
2023-02-15T06:53:55.008Z,4.45
2023-02-15T06:56:27.609Z,4.15
2023-02-15T06:58:55.668Z,3.85
2023-02-15T07:01:24.092Z,4.22
2023-02-15T07:03:52.253Z,3.65
2023-02-15T07:06:20.312Z,4.00
2023-02-15T07:08:48.766Z,3.42
2023-02-15T07:11:34.415Z,4.62
2023-02-15T07:14:04.210Z,5.03
2023-02-15T07:16:32.324Z,4.62
2023-02-15T07:19:00.308Z,4.40
2023-02-15T07:21:28.586Z,4.20
2023-02-15T07:23:59.265Z,5.15
2023-02-15T07:26:27.628Z,4.60
2023-02-15T07:28:55.996Z,4.18
2023-02-15T07:31:25.506Z,4.10
2023-02-15T07:33:53.709Z,3.85
2023-02-15T07:36:22.196Z,4.45
2023-02-15T07:38:50.181Z,5.28
2023-02-15T07:41:18.452Z,4.43
2023-02-15T07:43:47.064Z,4.97
2023-02-15T07:46:17.489Z,5.18
2023-02-15T07:48:50.225Z,4.30
2023-02-15T07:51:18.482Z,4.30
2023-02-15T07:53:46.663Z,3.70
2023-02-15T07:56:16.632Z,3.90
2023-02-15T07:58:53.910Z,4.80
2023-02-15T08:01:24.749Z,4.80
2023-02-15T08:03:55.424Z,4.30
2023-02-15T08:06:24.619Z,4.05
2023-02-15T08:08:53.289Z,4.57
2023-02-15T08:11:33.667Z,4.25
2023-02-15T08:14:04.951Z,4.97
2023-02-15T08:16:36.173Z,4.20
2023-02-15T08:19:08.752Z,5.32
2023-02-15T08:21:38.926Z,4.78
2023-02-15T08:24:08.487Z,5.03
2023-02-15T08:26:38.069Z,5.30
2023-02-15T08:29:07.594Z,5.30
2023-02-15T08:31:38.492Z,4.57
2023-02-15T08:34:08.114Z,4.72
2023-02-15T08:36:37.002Z,4.80
2023-02-15T08:39:07.545Z,5.37
2023-02-15T08:41:37.053Z,5.03
2023-02-15T08:44:07.633Z,4.90
2023-02-15T08:46:37.945Z,5.03
2023-02-15T08:49:08.275Z,5.57
2023-02-15T08:51:38.842Z,5.70
2023-02-15T08:54:09.576Z,5.85
2023-02-15T08:56:39.061Z,4.93
2023-02-15T08:59:08.453Z,4.37
2023-02-15T09:01:37.178Z,5.00
2023-02-15T09:04:09.681Z,5.32
2023-02-15T09:06:39.137Z,4.40
2023-02-15T09:09:07.608Z,4.37
2023-02-15T09:11:38.236Z,5.45
2023-02-15T09:14:09.168Z,4.90
2023-02-15T09:16:39.142Z,5.60
2023-02-15T09:19:09.544Z,5.75
2023-02-15T09:21:39.365Z,5.80
2023-02-15T09:24:10.084Z,7.15
2023-02-15T09:26:41.363Z,5.97
2023-02-15T09:29:10.342Z,7.15
2023-02-15T09:31:42.257Z,6.75
2023-02-15T09:34:12.181Z,6.97
2023-02-15T09:36:42.259Z,7.25
2023-02-15T09:39:12.858Z,7.10
2023-02-15T09:41:58.452Z,7.28
2023-02-15T09:44:43.168Z,7.55
2023-02-15T09:47:26.753Z,8.82
2023-02-15T09:50:03.717Z,8.50
2023-02-15T09:52:42.527Z,7.97
2023-02-15T09:55:24.754Z,6.37
2023-02-15T09:58:00.412Z,7.37
2023-02-15T10:00:37.389Z,7.45
2023-02-15T10:03:21.925Z,7.10
2023-02-15T10:06:06.396Z,7.47
2023-02-15T10:08:50.632Z,7.47
2023-02-15T10:11:40.885Z,7.95
2023-02-15T10:14:42.794Z,8.60
2023-02-15T10:17:23.193Z,7.18
2023-02-15T10:20:06.568Z,7.32
2023-02-15T10:22:48.650Z,6.93
2023-02-15T10:25:33.415Z,6.95
2023-02-15T10:28:07.494Z,7.32
2023-02-15T10:30:48.090Z,6.57
2023-02-15T10:33:33.035Z,5.93
2023-02-15T10:36:12.462Z,6.30
2023-02-15T10:38:45.776Z,6.93
2023-02-15T10:41:26.317Z,7.05
2023-02-15T10:44:07.937Z,6.62
2023-02-15T10:46:49.388Z,6.80
2023-02-15T10:49:28.557Z,6.45
2023-02-15T10:52:11.143Z,6.97
2023-02-15T10:54:48.392Z,7.25
2023-02-15T10:57:26.815Z,5.62
2023-02-15T11:00:10.412Z,6.22
2023-02-15T11:03:01.375Z,6.35
2023-02-15T11:05:40.525Z,6.80
2023-02-15T11:08:12.347Z,5.47
2023-02-15T11:10:46.511Z,5.97
2023-02-15T11:13:18.168Z,6.03
2023-02-15T11:15:49.850Z,5.37
2023-02-15T11:18:28.330Z,5.82
2023-02-15T11:21:01.808Z,5.93
2023-02-15T11:23:30.668Z,5.50
2023-02-15T11:26:02.549Z,5.37
2023-02-15T11:28:36.031Z,6.00
2023-02-15T11:31:16.897Z,5.00
2023-02-15T11:33:48.793Z,4.95
2023-02-15T11:36:21.395Z,4.82
2023-02-15T11:38:54.557Z,4.85
2023-02-15T11:41:30.408Z,5.18
2023-02-15T11:44:05.528Z,4.43
2023-02-15T11:46:34.380Z,4.60
2023-02-15T11:49:03.930Z,4.68
2023-02-15T11:51:32.012Z,4.47
2023-02-15T11:54:00.008Z,3.53
2023-02-15T11:56:29.755Z,4.05
2023-02-15T11:59:00.443Z,4.15
2023-02-15T12:01:33.923Z,4.10
2023-02-15T12:04:08.838Z,4.15
2023-02-15T12:06:43.246Z,3.60
2023-02-15T12:09:23.703Z,3.45
2023-02-15T12:11:53.315Z,4.30
2023-02-15T12:14:21.687Z,4.05
2023-02-15T12:16:52.406Z,4.72
2023-02-15T12:19:32.553Z,4.18
2023-02-15T12:22:04.359Z,4.20
2023-02-15T12:24:36.582Z,4.47
2023-02-15T12:27:08.638Z,4.60
2023-02-15T12:29:41.734Z,4.93
2023-02-15T12:32:13.652Z,4.85
2023-02-15T12:34:44.720Z,4.43
2023-02-15T12:37:19.475Z,4.47
2023-02-15T12:39:56.247Z,4.32
2023-02-15T12:42:27.403Z,4.28
2023-02-15T12:45:00.999Z,3.97
2023-02-15T12:47:31.645Z,4.53
2023-02-15T12:50:17.882Z,4.60
2023-02-15T12:52:49.631Z,4.40
2023-02-15T12:55:24.642Z,4.35
2023-02-15T12:58:10.636Z,4.47
2023-02-15T13:00:39.177Z,3.92
2023-02-15T13:03:19.186Z,4.32
2023-02-15T13:05:49.942Z,3.95
2023-02-15T13:08:20.737Z,3.85
2023-02-15T13:10:56.477Z,4.15
2023-02-15T13:13:27.996Z,4.25
2023-02-15T13:16:00.282Z,4.47
2023-02-15T13:18:34.734Z,4.53
2023-02-15T13:21:08.631Z,4.03
2023-02-15T13:23:37.551Z,3.70
2023-02-15T13:26:12.978Z,4.15
2023-02-15T13:28:46.379Z,4.03
2023-02-15T13:31:17.137Z,4.72
2023-02-15T13:33:49.131Z,4.62
2023-02-15T13:36:25.867Z,4.10
2023-02-15T13:39:06.496Z,4.35
2023-02-15T13:41:39.637Z,4.00
2023-02-15T13:44:17.548Z,3.97
2023-02-15T13:46:59.192Z,4.28
2023-02-15T13:49:41.703Z,3.87
2023-02-15T13:52:20.387Z,3.58
2023-02-15T13:55:08.787Z,4.25
2023-02-15T13:58:03.708Z,3.90
2023-02-15T14:00:42.590Z,3.62
2023-02-15T14:03:37.514Z,3.65
2023-02-15T14:06:19.279Z,3.03
2023-02-15T14:08:59.825Z,3.50
2023-02-15T14:11:36.403Z,3.50
2023-02-15T14:14:46.939Z,2.75
2023-02-15T14:17:25.410Z,3.50
2023-02-15T14:19:59.309Z,3.62
2023-02-15T14:22:34.730Z,2.92
2023-02-15T14:25:18.157Z,3.58
2023-02-15T14:27:56.795Z,3.53
2023-02-15T14:30:29.399Z,3.28
2023-02-15T14:33:07.000Z,3.85
2023-02-15T14:35:36.114Z,3.37
2023-02-15T14:38:09.577Z,3.78
2023-02-15T14:41:04.346Z,3.22
2023-02-15T14:43:46.515Z,3.70
2023-02-15T14:46:23.770Z,3.37
2023-02-15T14:48:55.760Z,3.50
2023-02-15T14:51:59.961Z,3.33
2023-02-15T14:55:02.967Z,2.85
2023-02-15T14:57:36.760Z,2.90
2023-02-15T15:00:32.479Z,3.60
2023-02-15T15:03:02.205Z,3.40
2023-02-15T15:05:36.907Z,3.72
2023-02-15T15:08:07.325Z,3.42
2023-02-15T15:10:41.645Z,3.50
2023-02-15T15:13:53.603Z,3.30
2023-02-15T15:16:48.085Z,2.83
2023-02-15T15:20:05.121Z,3.47
2023-02-15T15:22:36.034Z,3.00
2023-02-15T15:25:06.246Z,2.80
2023-02-15T15:27:47.049Z,3.35
2023-02-15T15:30:50.933Z,3.12
2023-02-15T15:34:04.585Z,2.65
2023-02-15T15:36:55.156Z,3.45
2023-02-15T15:39:56.408Z,3.70
2023-02-15T15:42:35.013Z,3.28
2023-02-15T15:45:21.299Z,3.70
2023-02-15T15:48:07.281Z,2.90
2023-02-15T15:50:36.041Z,3.08
2023-02-15T15:53:05.535Z,3.37
2023-02-15T15:55:38.337Z,3.08
2023-02-15T15:58:09.267Z,2.78
2023-02-15T16:00:41.767Z,3.08
2023-02-15T16:03:16.528Z,3.30
2023-02-15T16:05:44.576Z,3.35
2023-02-15T16:08:12.959Z,3.67
2023-02-15T16:10:42.811Z,3.80
2023-02-15T16:13:16.381Z,3.87
2023-02-15T16:15:50.519Z,4.32
2023-02-15T16:18:19.381Z,4.30
2023-02-15T16:20:53.933Z,4.32
2023-02-15T16:23:46.830Z,4.47
2023-02-15T16:26:28.004Z,4.50
2023-02-15T16:28:56.289Z,3.42
2023-02-15T16:31:25.092Z,3.67
2023-02-15T16:33:55.923Z,3.83
2023-02-15T16:36:25.961Z,3.00
2023-02-15T16:39:12.544Z,4.15
2023-02-15T16:41:46.874Z,4.40
2023-02-15T16:44:19.284Z,4.62
2023-02-15T16:46:50.436Z,4.90
2023-02-15T16:49:20.429Z,3.35
2023-02-15T16:51:58.644Z,2.95
2023-02-15T16:54:28.292Z,3.12
2023-02-15T16:56:58.083Z,2.85
2023-02-15T16:59:36.521Z,2.33
2023-02-15T17:02:07.694Z,2.78
2023-02-15T17:04:38.998Z,2.85
2023-02-15T17:07:15.619Z,2.62
2023-02-15T17:09:51.804Z,2.92
2023-02-15T17:12:48.042Z,2.90
2023-02-15T17:15:28.362Z,2.78
2023-02-15T17:18:00.568Z,2.42
2023-02-15T17:20:32.103Z,2.83
2023-02-15T17:23:02.085Z,2.47
2023-02-15T17:25:37.966Z,2.87
2023-02-15T17:28:17.960Z,2.40
2023-02-15T17:30:47.321Z,2.35
2023-02-15T17:33:29.811Z,2.37
2023-02-15T17:36:06.401Z,2.58
2023-02-15T17:38:35.196Z,2.90
2023-02-15T17:41:03.587Z,2.97
2023-02-15T17:43:33.389Z,3.40
2023-02-15T17:46:02.137Z,3.03
2023-02-15T17:48:34.180Z,3.17
2023-02-15T17:51:05.406Z,3.47
2023-02-15T17:53:34.044Z,3.25
2023-02-15T17:56:10.655Z,4.55
2023-02-15T17:58:40.910Z,3.40
2023-02-15T18:01:38.212Z,4.03
2023-02-15T18:04:27.075Z,3.12
2023-02-15T18:07:13.173Z,3.25
2023-02-15T18:09:59.510Z,4.43
2023-02-15T18:12:29.507Z,3.22
2023-02-15T18:15:00.714Z,3.22
2023-02-15T18:17:31.370Z,3.62
2023-02-15T18:20:01.474Z,4.05
2023-02-15T18:22:30.918Z,4.18
2023-02-15T18:25:00.102Z,3.60
2023-02-15T18:27:28.502Z,3.42
2023-02-15T18:29:56.728Z,4.60
2023-02-15T18:32:32.117Z,3.37
2023-02-15T18:35:00.642Z,5.05
2023-02-15T18:37:33.101Z,3.65
2023-02-15T18:40:04.143Z,3.70
2023-02-15T18:42:35.165Z,3.53
2023-02-15T18:45:14.997Z,3.65
2023-02-15T18:47:44.920Z,3.70
2023-02-15T18:50:14.482Z,2.95
2023-02-15T18:52:46.167Z,3.50
2023-02-15T18:55:18.637Z,3.53
2023-02-15T18:57:48.052Z,3.80
2023-02-15T19:00:19.420Z,3.75
2023-02-15T19:02:49.251Z,4.30
2023-02-15T19:05:18.374Z,3.92
2023-02-15T19:07:48.545Z,3.78
2023-02-15T19:10:20.148Z,4.05
2023-02-15T19:12:49.382Z,4.65
2023-02-15T19:15:19.437Z,4.30
2023-02-15T19:17:48.908Z,4.72
2023-02-15T19:20:20.395Z,4.97
2023-02-15T19:22:50.088Z,4.82
2023-02-15T19:25:22.586Z,4.65
2023-02-15T19:27:51.161Z,4.68
2023-02-15T19:30:22.797Z,4.25
2023-02-15T19:32:53.608Z,4.35
2023-02-15T19:35:23.854Z,4.20
2023-02-15T19:37:54.160Z,4.50
2023-02-15T19:40:24.898Z,4.95
2023-02-15T19:42:53.003Z,3.60
2023-02-15T19:45:23.964Z,3.42
2023-02-15T19:47:55.212Z,4.70
2023-02-15T19:50:25.613Z,3.75
2023-02-15T19:52:54.177Z,4.03
2023-02-15T19:55:25.053Z,4.00
2023-02-15T19:57:55.809Z,4.00
2023-02-15T20:00:27.326Z,4.28
2023-02-15T20:02:59.135Z,3.80
2023-02-15T20:05:28.933Z,4.12
2023-02-15T20:07:58.160Z,3.53
2023-02-15T20:10:29.248Z,3.80
2023-02-15T20:12:58.237Z,3.92
2023-02-15T20:15:28.455Z,3.67
2023-02-15T20:17:59.423Z,3.50
2023-02-15T20:20:35.369Z,4.20
2023-02-15T20:23:03.573Z,4.68
2023-02-15T20:25:34.106Z,4.45
2023-02-15T20:28:03.124Z,4.43
2023-02-15T20:30:33.433Z,3.87
2023-02-15T20:33:02.857Z,4.97
2023-02-15T20:35:31.060Z,4.55
2023-02-15T20:38:00.493Z,4.70
2023-02-15T20:40:30.784Z,3.83
2023-02-15T20:42:59.533Z,4.57
2023-02-15T20:45:30.510Z,4.85
2023-02-15T20:47:59.551Z,4.05
2023-02-15T20:50:31.841Z,4.90
2023-02-15T20:53:02.691Z,4.82
2023-02-15T20:55:33.009Z,4.47
2023-02-15T20:58:01.108Z,4.95
2023-02-15T21:00:32.249Z,4.25
2023-02-15T21:03:02.392Z,4.10
2023-02-15T21:05:33.690Z,4.93
2023-02-15T21:08:02.596Z,4.37
2023-02-15T21:10:32.613Z,5.25
2023-02-15T21:13:03.368Z,3.55
2023-02-15T21:15:34.468Z,5.10
2023-02-15T21:18:05.112Z,4.32
2023-02-15T21:20:37.412Z,4.25
2023-02-15T21:23:06.919Z,4.50
2023-02-15T21:25:36.964Z,4.87
2023-02-15T21:28:05.964Z,4.37
2023-02-15T21:30:34.121Z,4.82
2023-02-15T21:33:02.405Z,4.28
2023-02-15T21:35:30.518Z,5.12
2023-02-15T21:38:00.062Z,4.95
2023-02-15T21:40:31.798Z,4.28
2023-02-15T21:43:17.937Z,5.07
2023-02-15T21:46:03.750Z,4.47
2023-02-15T21:48:31.750Z,5.00
2023-02-15T21:51:17.621Z,4.65
2023-02-15T21:53:47.663Z,4.45
2023-02-15T21:56:18.763Z,4.70
2023-02-15T21:58:50.911Z,5.05
2023-02-15T22:01:23.671Z,5.53
2023-02-15T22:03:53.321Z,5.22
2023-02-15T22:06:21.700Z,4.60
2023-02-15T22:08:51.223Z,4.82
2023-02-15T22:11:22.580Z,4.93
2023-02-15T22:13:51.664Z,4.68
2023-02-15T22:16:22.087Z,4.45
2023-02-15T22:18:50.475Z,4.95
2023-02-15T22:21:19.198Z,5.62
2023-02-15T22:23:47.976Z,4.97
2023-02-15T22:26:23.413Z,4.57
2023-02-15T22:28:52.226Z,4.78
2023-02-15T22:31:22.983Z,5.62
2023-02-15T22:33:51.537Z,5.28
2023-02-15T22:36:25.688Z,5.15
2023-02-15T22:38:55.177Z,4.10
2023-02-15T22:41:28.385Z,5.07
2023-02-15T22:43:57.738Z,4.93
2023-02-15T22:46:27.108Z,5.25
2023-02-15T22:48:55.119Z,4.30
2023-02-15T22:51:25.883Z,4.37
2023-02-15T22:53:53.899Z,4.80
2023-02-15T22:56:27.253Z,5.05
2023-02-15T22:59:02.237Z,5.62
2023-02-15T23:01:32.825Z,4.90
2023-02-15T23:04:03.967Z,4.80
2023-02-15T23:06:32.509Z,5.10
2023-02-15T23:09:01.377Z,4.05
2023-02-15T23:11:30.814Z,4.40
2023-02-15T23:13:58.811Z,4.65
2023-02-15T23:16:27.156Z,5.25
2023-02-15T23:18:55.551Z,5.15
2023-02-15T23:21:25.702Z,5.25
2023-02-15T23:23:57.547Z,4.80
2023-02-15T23:26:28.928Z,4.70
2023-02-15T23:29:00.529Z,5.47
2023-02-15T23:31:32.105Z,5.82
2023-02-15T23:34:02.485Z,5.07
2023-02-15T23:36:33.074Z,4.40
2023-02-15T23:39:26.494Z,5.60
2023-02-15T23:41:54.496Z,4.90
2023-02-15T23:44:24.197Z,4.95
2023-02-15T23:46:52.422Z,5.32
2023-02-15T23:49:21.069Z,4.68
2023-02-15T23:51:51.880Z,5.18
2023-02-15T23:54:22.381Z,5.50
2023-02-15T23:56:53.352Z,4.40
2023-02-15T23:59:24.882Z,4.80
